sensor_id;sensor_type;location;lat;lon;timestamp;temperature;humidity
7588;DHT22;3835;48.850;8.938;2023-07-22T00:00:03;12.70;99.90
7588;DHT22;3835;48.850;8.938;2023-07-22T00:02:31;12.70;99.90
7588;DHT22;3835;48.850;8.938;2023-07-22T00:04:58;12.60;99.90
7588;DHT22;3835;48.850;8.938;2023-07-22T00:07:25;12.60;99.90
7588;DHT22;3835;48.850;8.938;2023-07-22T00:09:53;12.60;99.90
7588;DHT22;3835;48.850;8.938;2023-07-22T00:12:20;12.60;99.90
7588;DHT22;3835;48.850;8.938;2023-07-22T00:14:51;12.60;99.90
7588;DHT22;3835;48.850;8.938;2023-07-22T00:17:18;12.60;99.90
7588;DHT22;3835;48.850;8.938;2023-07-22T00:19:46;12.40;99.90
7588;DHT22;3835;48.850;8.938;2023-07-22T00:22:13;12.40;99.90
7588;DHT22;3835;48.850;8.938;2023-07-22T00:24:40;12.30;99.90
7588;DHT22;3835;48.850;8.938;2023-07-22T00:27:08;12.40;99.90
7588;DHT22;3835;48.850;8.938;2023-07-22T00:29:35;12.40;99.90
7588;DHT22;3835;48.850;8.938;2023-07-22T00:32:02;12.40;99.90
7588;DHT22;3835;48.850;8.938;2023-07-22T00:34:29;12.30;99.90
7588;DHT22;3835;48.850;8.938;2023-07-22T00:36:55;12.40;99.90
7588;DHT22;3835;48.850;8.938;2023-07-22T00:39:22;12.40;99.90
7588;DHT22;3835;48.850;8.938;2023-07-22T00:41:49;12.30;99.90
7588;DHT22;3835;48.850;8.938;2023-07-22T00:44:17;12.30;99.90
7588;DHT22;3835;48.850;8.938;2023-07-22T00:46:45;12.20;99.90
7588;DHT22;3835;48.850;8.938;2023-07-22T00:49:14;12.10;99.90
7588;DHT22;3835;48.850;8.938;2023-07-22T00:51:43;12.00;99.90
7588;DHT22;3835;48.850;8.938;2023-07-22T00:54:09;11.90;99.90
7588;DHT22;3835;48.850;8.938;2023-07-22T00:56:36;11.90;99.90
7588;DHT22;3835;48.850;8.938;2023-07-22T00:59:03;11.90;99.90
7588;DHT22;3835;48.850;8.938;2023-07-22T01:01:32;11.90;99.90
7588;DHT22;3835;48.850;8.938;2023-07-22T01:03:59;11.90;99.90
7588;DHT22;3835;48.850;8.938;2023-07-22T01:06:27;12.00;99.90
7588;DHT22;3835;48.850;8.938;2023-07-22T01:08:56;11.90;99.90
7588;DHT22;3835;48.850;8.938;2023-07-22T01:11:23;11.90;99.90
7588;DHT22;3835;48.850;8.938;2023-07-22T01:13:51;11.80;99.90
7588;DHT22;3835;48.850;8.938;2023-07-22T01:16:23;11.80;99.90
7588;DHT22;3835;48.850;8.938;2023-07-22T01:18:52;11.80;99.90
7588;DHT22;3835;48.850;8.938;2023-07-22T01:21:19;11.80;99.90
7588;DHT22;3835;48.850;8.938;2023-07-22T01:23:48;11.80;99.90
7588;DHT22;3835;48.850;8.938;2023-07-22T01:26:15;11.80;99.90
7588;DHT22;3835;48.850;8.938;2023-07-22T01:28:41;11.80;99.90
7588;DHT22;3835;48.850;8.938;2023-07-22T01:31:08;11.80;99.90
7588;DHT22;3835;48.850;8.938;2023-07-22T01:33:35;11.80;99.90
7588;DHT22;3835;48.850;8.938;2023-07-22T01:36:03;11.80;99.90
7588;DHT22;3835;48.850;8.938;2023-07-22T01:38:30;11.80;99.90
7588;DHT22;3835;48.850;8.938;2023-07-22T01:40:59;11.70;99.90
7588;DHT22;3835;48.850;8.938;2023-07-22T01:43:25;11.70;99.90
7588;DHT22;3835;48.850;8.938;2023-07-22T01:45:52;11.70;99.90
7588;DHT22;3835;48.850;8.938;2023-07-22T01:48:19;11.70;99.90
7588;DHT22;3835;48.850;8.938;2023-07-22T01:50:47;11.60;99.90
7588;DHT22;3835;48.850;8.938;2023-07-22T01:53:14;11.60;99.90
7588;DHT22;3835;48.850;8.938;2023-07-22T01:55:44;11.60;99.90
7588;DHT22;3835;48.850;8.938;2023-07-22T01:58:12;11.60;99.90
7588;DHT22;3835;48.850;8.938;2023-07-22T02:00:39;11.60;99.90
7588;DHT22;3835;48.850;8.938;2023-07-22T02:03:05;11.60;99.90
7588;DHT22;3835;48.850;8.938;2023-07-22T02:05:32;11.60;99.90
7588;DHT22;3835;48.850;8.938;2023-07-22T02:07:59;11.60;99.90
7588;DHT22;3835;48.850;8.938;2023-07-22T02:10:26;11.50;99.90
7588;DHT22;3835;48.850;8.938;2023-07-22T02:12:52;11.50;99.90
7588;DHT22;3835;48.850;8.938;2023-07-22T02:15:20;11.50;99.90
7588;DHT22;3835;48.850;8.938;2023-07-22T02:17:49;11.50;99.90
7588;DHT22;3835;48.850;8.938;2023-07-22T02:20:16;11.40;99.90
7588;DHT22;3835;48.850;8.938;2023-07-22T02:22:43;11.40;99.90
7588;DHT22;3835;48.850;8.938;2023-07-22T02:25:10;11.50;99.90
7588;DHT22;3835;48.850;8.938;2023-07-22T02:27:37;11.50;99.90
7588;DHT22;3835;48.850;8.938;2023-07-22T02:30:05;11.40;99.90
7588;DHT22;3835;48.850;8.938;2023-07-22T02:32:37;11.30;99.90
7588;DHT22;3835;48.850;8.938;2023-07-22T02:35:05;11.30;99.90
7588;DHT22;3835;48.850;8.938;2023-07-22T02:37:32;11.20;99.90
7588;DHT22;3835;48.850;8.938;2023-07-22T02:39:59;11.20;99.90
7588;DHT22;3835;48.850;8.938;2023-07-22T02:42:26;11.20;99.90
7588;DHT22;3835;48.850;8.938;2023-07-22T02:44:53;11.20;99.90
7588;DHT22;3835;48.850;8.938;2023-07-22T02:47:20;11.10;99.90
7588;DHT22;3835;48.850;8.938;2023-07-22T02:49:48;11.20;99.90
7588;DHT22;3835;48.850;8.938;2023-07-22T02:52:15;11.20;99.90
7588;DHT22;3835;48.850;8.938;2023-07-22T02:54:42;11.10;99.90
7588;DHT22;3835;48.850;8.938;2023-07-22T02:57:09;11.10;99.90
7588;DHT22;3835;48.850;8.938;2023-07-22T02:59:36;11.20;99.90
7588;DHT22;3835;48.850;8.938;2023-07-22T03:02:03;11.20;99.90
7588;DHT22;3835;48.850;8.938;2023-07-22T03:04:29;11.10;99.90
7588;DHT22;3835;48.850;8.938;2023-07-22T03:06:57;11.10;99.90
7588;DHT22;3835;48.850;8.938;2023-07-22T03:09:24;11.10;99.90
7588;DHT22;3835;48.850;8.938;2023-07-22T03:11:51;11.10;99.90
7588;DHT22;3835;48.850;8.938;2023-07-22T03:14:18;11.20;99.90
7588;DHT22;3835;48.850;8.938;2023-07-22T03:16:46;11.20;99.90
7588;DHT22;3835;48.850;8.938;2023-07-22T03:19:13;11.20;99.90
7588;DHT22;3835;48.850;8.938;2023-07-22T03:21:40;11.20;99.90
7588;DHT22;3835;48.850;8.938;2023-07-22T03:24:08;11.20;99.90
7588;DHT22;3835;48.850;8.938;2023-07-22T03:26:35;11.20;99.90
7588;DHT22;3835;48.850;8.938;2023-07-22T03:29:01;11.30;99.90
7588;DHT22;3835;48.850;8.938;2023-07-22T03:31:30;11.30;99.90
7588;DHT22;3835;48.850;8.938;2023-07-22T03:33:57;11.30;99.90
7588;DHT22;3835;48.850;8.938;2023-07-22T03:36:24;11.40;99.90
7588;DHT22;3835;48.850;8.938;2023-07-22T03:38:52;11.50;99.90
7588;DHT22;3835;48.850;8.938;2023-07-22T03:41:20;11.50;99.90
7588;DHT22;3835;48.850;8.938;2023-07-22T03:43:47;11.40;99.90
7588;DHT22;3835;48.850;8.938;2023-07-22T03:46:13;11.40;99.90
7588;DHT22;3835;48.850;8.938;2023-07-22T03:48:40;11.40;99.90
7588;DHT22;3835;48.850;8.938;2023-07-22T03:51:07;11.30;99.90
7588;DHT22;3835;48.850;8.938;2023-07-22T03:53:33;11.40;99.90
7588;DHT22;3835;48.850;8.938;2023-07-22T03:56:00;11.40;99.90
7588;DHT22;3835;48.850;8.938;2023-07-22T03:58:29;11.40;99.90
7588;DHT22;3835;48.850;8.938;2023-07-22T04:00:56;11.50;99.90
7588;DHT22;3835;48.850;8.938;2023-07-22T04:03:22;11.40;99.90
7588;DHT22;3835;48.850;8.938;2023-07-22T04:05:54;11.40;99.90
7588;DHT22;3835;48.850;8.938;2023-07-22T04:08:21;11.50;99.90
7588;DHT22;3835;48.850;8.938;2023-07-22T04:10:51;11.50;99.90
7588;DHT22;3835;48.850;8.938;2023-07-22T04:13:18;11.50;99.90
7588;DHT22;3835;48.850;8.938;2023-07-22T04:15:46;11.60;99.90
7588;DHT22;3835;48.850;8.938;2023-07-22T04:18:15;11.70;99.90
7588;DHT22;3835;48.850;8.938;2023-07-22T04:20:41;11.70;99.90
7588;DHT22;3835;48.850;8.938;2023-07-22T04:23:08;11.80;99.90
7588;DHT22;3835;48.850;8.938;2023-07-22T04:25:39;11.90;99.90
7588;DHT22;3835;48.850;8.938;2023-07-22T04:28:06;12.00;99.90
7588;DHT22;3835;48.850;8.938;2023-07-22T04:30:33;12.20;99.90
7588;DHT22;3835;48.850;8.938;2023-07-22T04:33:02;12.30;99.90
7588;DHT22;3835;48.850;8.938;2023-07-22T04:35:31;12.40;99.90
7588;DHT22;3835;48.850;8.938;2023-07-22T04:37:58;12.50;99.90
7588;DHT22;3835;48.850;8.938;2023-07-22T04:40:24;12.60;99.90
7588;DHT22;3835;48.850;8.938;2023-07-22T04:42:51;12.70;99.90
7588;DHT22;3835;48.850;8.938;2023-07-22T04:45:18;12.80;99.90
7588;DHT22;3835;48.850;8.938;2023-07-22T04:47:45;12.90;99.90
7588;DHT22;3835;48.850;8.938;2023-07-22T04:50:15;13.10;99.90
7588;DHT22;3835;48.850;8.938;2023-07-22T04:52:44;13.30;99.90
7588;DHT22;3835;48.850;8.938;2023-07-22T04:55:11;13.50;99.90
7588;DHT22;3835;48.850;8.938;2023-07-22T04:57:39;13.60;99.90
7588;DHT22;3835;48.850;8.938;2023-07-22T05:00:07;13.70;99.90
7588;DHT22;3835;48.850;8.938;2023-07-22T05:02:37;13.80;99.90
7588;DHT22;3835;48.850;8.938;2023-07-22T05:05:04;13.90;99.90
7588;DHT22;3835;48.850;8.938;2023-07-22T05:07:33;13.80;99.90
7588;DHT22;3835;48.850;8.938;2023-07-22T05:10:00;14.00;99.90
7588;DHT22;3835;48.850;8.938;2023-07-22T05:12:27;14.10;99.90
7588;DHT22;3835;48.850;8.938;2023-07-22T05:14:54;14.40;99.90
7588;DHT22;3835;48.850;8.938;2023-07-22T05:17:20;14.60;99.90
7588;DHT22;3835;48.850;8.938;2023-07-22T05:19:47;14.70;99.90
7588;DHT22;3835;48.850;8.938;2023-07-22T05:22:14;14.90;99.90
7588;DHT22;3835;48.850;8.938;2023-07-22T05:24:43;14.80;99.90
7588;DHT22;3835;48.850;8.938;2023-07-22T05:27:10;14.70;99.90
7588;DHT22;3835;48.850;8.938;2023-07-22T05:29:37;14.70;99.90
7588;DHT22;3835;48.850;8.938;2023-07-22T05:32:04;14.90;99.90
7588;DHT22;3835;48.850;8.938;2023-07-22T05:34:31;15.30;99.90
7588;DHT22;3835;48.850;8.938;2023-07-22T05:36:58;16.30;99.90
7588;DHT22;3835;48.850;8.938;2023-07-22T05:39:25;18.00;99.90
7588;DHT22;3835;48.850;8.938;2023-07-22T05:41:53;19.40;99.90
7588;DHT22;3835;48.850;8.938;2023-07-22T05:44:20;19.90;99.90
7588;DHT22;3835;48.850;8.938;2023-07-22T05:46:46;20.50;99.90
7588;DHT22;3835;48.850;8.938;2023-07-22T05:49:13;20.90;99.90
7588;DHT22;3835;48.850;8.938;2023-07-22T05:51:40;20.90;99.90
7588;DHT22;3835;48.850;8.938;2023-07-22T05:54:07;20.90;99.90
7588;DHT22;3835;48.850;8.938;2023-07-22T05:56:33;20.50;99.90
7588;DHT22;3835;48.850;8.938;2023-07-22T05:59:01;19.40;99.90
7588;DHT22;3835;48.850;8.938;2023-07-22T06:01:28;18.60;99.90
7588;DHT22;3835;48.850;8.938;2023-07-22T06:03:55;18.20;99.90
7588;DHT22;3835;48.850;8.938;2023-07-22T06:06:22;17.90;99.90
7588;DHT22;3835;48.850;8.938;2023-07-22T06:08:48;17.50;99.90
7588;DHT22;3835;48.850;8.938;2023-07-22T06:11:15;17.30;99.90
7588;DHT22;3835;48.850;8.938;2023-07-22T06:13:43;17.30;99.90
7588;DHT22;3835;48.850;8.938;2023-07-22T06:16:11;17.30;99.90
7588;DHT22;3835;48.850;8.938;2023-07-22T06:18:38;17.40;99.90
7588;DHT22;3835;48.850;8.938;2023-07-22T06:21:04;17.60;99.90
7588;DHT22;3835;48.850;8.938;2023-07-22T06:23:31;17.90;99.90
7588;DHT22;3835;48.850;8.938;2023-07-22T06:25:58;18.00;99.90
7588;DHT22;3835;48.850;8.938;2023-07-22T06:28:25;18.00;99.90
7588;DHT22;3835;48.850;8.938;2023-07-22T06:30:52;18.20;99.90
7588;DHT22;3835;48.850;8.938;2023-07-22T06:33:20;18.40;99.90
7588;DHT22;3835;48.850;8.938;2023-07-22T06:35:47;18.50;99.90
7588;DHT22;3835;48.850;8.938;2023-07-22T06:38:13;18.60;99.90
7588;DHT22;3835;48.850;8.938;2023-07-22T06:40:40;18.80;99.90
7588;DHT22;3835;48.850;8.938;2023-07-22T06:43:07;18.70;99.90
7588;DHT22;3835;48.850;8.938;2023-07-22T06:45:34;18.90;99.90
7588;DHT22;3835;48.850;8.938;2023-07-22T06:48:00;19.10;99.90
7588;DHT22;3835;48.850;8.938;2023-07-22T06:50:29;19.40;99.90
7588;DHT22;3835;48.850;8.938;2023-07-22T06:52:56;19.50;99.90
7588;DHT22;3835;48.850;8.938;2023-07-22T06:55:23;19.60;99.90
7588;DHT22;3835;48.850;8.938;2023-07-22T06:57:49;19.90;99.90
7588;DHT22;3835;48.850;8.938;2023-07-22T07:00:16;20.20;99.90
7588;DHT22;3835;48.850;8.938;2023-07-22T07:02:43;20.20;99.90
7588;DHT22;3835;48.850;8.938;2023-07-22T07:05:10;20.40;99.90
7588;DHT22;3835;48.850;8.938;2023-07-22T07:07:38;20.70;99.90
7588;DHT22;3835;48.850;8.938;2023-07-22T07:10:07;20.80;99.90
7588;DHT22;3835;48.850;8.938;2023-07-22T07:12:33;20.80;99.90
7588;DHT22;3835;48.850;8.938;2023-07-22T07:15:00;20.60;99.90
7588;DHT22;3835;48.850;8.938;2023-07-22T07:17:27;20.60;99.90
7588;DHT22;3835;48.850;8.938;2023-07-22T07:19:54;20.60;99.90
7588;DHT22;3835;48.850;8.938;2023-07-22T07:22:21;20.60;99.90
7588;DHT22;3835;48.850;8.938;2023-07-22T07:24:49;20.80;99.90
7588;DHT22;3835;48.850;8.938;2023-07-22T07:27:16;21.10;99.90
7588;DHT22;3835;48.850;8.938;2023-07-22T07:29:42;21.30;99.90
7588;DHT22;3835;48.850;8.938;2023-07-22T07:32:10;21.30;99.90
7588;DHT22;3835;48.850;8.938;2023-07-22T07:34:36;21.40;99.90
7588;DHT22;3835;48.850;8.938;2023-07-22T07:37:04;21.50;99.90
7588;DHT22;3835;48.850;8.938;2023-07-22T07:39:31;21.50;99.90
7588;DHT22;3835;48.850;8.938;2023-07-22T07:41:59;21.30;99.90
7588;DHT22;3835;48.850;8.938;2023-07-22T07:44:25;21.60;99.90
7588;DHT22;3835;48.850;8.938;2023-07-22T07:46:52;21.80;99.90
7588;DHT22;3835;48.850;8.938;2023-07-22T07:49:19;22.00;99.90
7588;DHT22;3835;48.850;8.938;2023-07-22T07:51:46;22.10;99.90
7588;DHT22;3835;48.850;8.938;2023-07-22T07:54:13;21.90;99.90
7588;DHT22;3835;48.850;8.938;2023-07-22T07:56:40;22.10;99.90
7588;DHT22;3835;48.850;8.938;2023-07-22T07:59:08;22.10;99.90
7588;DHT22;3835;48.850;8.938;2023-07-22T08:01:35;22.10;99.90
7588;DHT22;3835;48.850;8.938;2023-07-22T08:04:07;21.90;99.90
7588;DHT22;3835;48.850;8.938;2023-07-22T08:06:34;22.30;99.90
7588;DHT22;3835;48.850;8.938;2023-07-22T08:09:02;22.50;99.90
7588;DHT22;3835;48.850;8.938;2023-07-22T08:11:30;22.80;99.90
7588;DHT22;3835;48.850;8.938;2023-07-22T08:13:57;22.70;99.00
7588;DHT22;3835;48.850;8.938;2023-07-22T08:16:25;22.70;99.90
7588;DHT22;3835;48.850;8.938;2023-07-22T08:18:52;23.00;99.90
7588;DHT22;3835;48.850;8.938;2023-07-22T08:21:19;23.10;98.30
7588;DHT22;3835;48.850;8.938;2023-07-22T08:23:46;23.20;98.90
7588;DHT22;3835;48.850;8.938;2023-07-22T08:26:13;23.10;99.50
7588;DHT22;3835;48.850;8.938;2023-07-22T08:28:40;21.90;99.90
7588;DHT22;3835;48.850;8.938;2023-07-22T08:31:07;21.60;99.90
7588;DHT22;3835;48.850;8.938;2023-07-22T08:33:35;21.50;99.90
7588;DHT22;3835;48.850;8.938;2023-07-22T08:36:02;21.60;99.90
7588;DHT22;3835;48.850;8.938;2023-07-22T08:38:29;21.80;99.50
7588;DHT22;3835;48.850;8.938;2023-07-22T08:40:56;22.20;99.30
7588;DHT22;3835;48.850;8.938;2023-07-22T08:43:23;23.10;99.30
7588;DHT22;3835;48.850;8.938;2023-07-22T08:45:51;23.60;97.20
7588;DHT22;3835;48.850;8.938;2023-07-22T08:48:18;24.10;95.70
7588;DHT22;3835;48.850;8.938;2023-07-22T08:50:52;24.30;94.70
7588;DHT22;3835;48.850;8.938;2023-07-22T08:53:20;24.50;95.80
7588;DHT22;3835;48.850;8.938;2023-07-22T08:55:47;24.30;95.50
7588;DHT22;3835;48.850;8.938;2023-07-22T08:58:14;23.50;98.90
7588;DHT22;3835;48.850;8.938;2023-07-22T09:00:42;23.00;99.70
7588;DHT22;3835;48.850;8.938;2023-07-22T09:03:09;22.50;97.70
7588;DHT22;3835;48.850;8.938;2023-07-22T09:05:37;22.60;96.90
7588;DHT22;3835;48.850;8.938;2023-07-22T09:08:07;22.50;94.80
7588;DHT22;3835;48.850;8.938;2023-07-22T09:10:34;22.10;95.10
7588;DHT22;3835;48.850;8.938;2023-07-22T09:13:02;22.00;95.30
7588;DHT22;3835;48.850;8.938;2023-07-22T09:15:29;22.00;94.50
7588;DHT22;3835;48.850;8.938;2023-07-22T09:17:58;22.20;96.70
7588;DHT22;3835;48.850;8.938;2023-07-22T09:20:24;22.50;96.90
7588;DHT22;3835;48.850;8.938;2023-07-22T09:22:53;23.00;96.10
7588;DHT22;3835;48.850;8.938;2023-07-22T09:25:24;23.40;94.80
7588;DHT22;3835;48.850;8.938;2023-07-22T09:27:52;23.70;94.50
7588;DHT22;3835;48.850;8.938;2023-07-22T09:30:21;23.70;94.50
7588;DHT22;3835;48.850;8.938;2023-07-22T09:32:48;23.10;92.00
7588;DHT22;3835;48.850;8.938;2023-07-22T09:35:16;23.30;93.80
7588;DHT22;3835;48.850;8.938;2023-07-22T09:37:43;23.90;94.20
7588;DHT22;3835;48.850;8.938;2023-07-22T09:40:18;24.50;94.30
7588;DHT22;3835;48.850;8.938;2023-07-22T09:42:50;24.90;93.60
7588;DHT22;3835;48.850;8.938;2023-07-22T09:45:18;25.00;92.10
7588;DHT22;3835;48.850;8.938;2023-07-22T09:47:46;25.20;92.50
7588;DHT22;3835;48.850;8.938;2023-07-22T09:50:14;25.10;93.10
7588;DHT22;3835;48.850;8.938;2023-07-22T09:52:46;24.90;91.30
7588;DHT22;3835;48.850;8.938;2023-07-22T09:55:16;24.20;90.70
7588;DHT22;3835;48.850;8.938;2023-07-22T09:57:46;24.40;91.40
7588;DHT22;3835;48.850;8.938;2023-07-22T10:00:15;24.50;91.50
7588;DHT22;3835;48.850;8.938;2023-07-22T10:02:46;24.60;91.90
7588;DHT22;3835;48.850;8.938;2023-07-22T10:05:15;25.00;91.00
7588;DHT22;3835;48.850;8.938;2023-07-22T10:07:45;25.10;91.80
7588;DHT22;3835;48.850;8.938;2023-07-22T10:10:14;25.10;90.80
7588;DHT22;3835;48.850;8.938;2023-07-22T10:12:42;24.90;90.10
7588;DHT22;3835;48.850;8.938;2023-07-22T10:15:10;25.00;91.30
7588;DHT22;3835;48.850;8.938;2023-07-22T10:17:39;25.20;91.60
7588;DHT22;3835;48.850;8.938;2023-07-22T10:20:07;25.30;90.90
7588;DHT22;3835;48.850;8.938;2023-07-22T10:22:36;25.10;90.90
7588;DHT22;3835;48.850;8.938;2023-07-22T10:25:04;24.90;89.10
7588;DHT22;3835;48.850;8.938;2023-07-22T10:27:32;24.30;85.90
7588;DHT22;3835;48.850;8.938;2023-07-22T10:30:00;24.40;90.00
7588;DHT22;3835;48.850;8.938;2023-07-22T10:32:32;24.30;90.70
7588;DHT22;3835;48.850;8.938;2023-07-22T10:35:01;24.40;89.10
7588;DHT22;3835;48.850;8.938;2023-07-22T10:37:32;24.80;90.80
7588;DHT22;3835;48.850;8.938;2023-07-22T10:40:00;25.30;89.90
7588;DHT22;3835;48.850;8.938;2023-07-22T10:42:27;25.30;88.30
7588;DHT22;3835;48.850;8.938;2023-07-22T10:45:00;25.40;90.00
7588;DHT22;3835;48.850;8.938;2023-07-22T10:47:34;25.40;88.30
7588;DHT22;3835;48.850;8.938;2023-07-22T10:50:09;25.40;88.90
7588;DHT22;3835;48.850;8.938;2023-07-22T10:52:44;25.60;90.50
7588;DHT22;3835;48.850;8.938;2023-07-22T10:55:16;25.90;87.00
7588;DHT22;3835;48.850;8.938;2023-07-22T10:57:50;25.60;90.50
7588;DHT22;3835;48.850;8.938;2023-07-22T11:00:19;25.40;86.80
7588;DHT22;3835;48.850;8.938;2023-07-22T11:02:47;24.80;88.50
7588;DHT22;3835;48.850;8.938;2023-07-22T11:05:49;24.30;89.30
7588;DHT22;3835;48.850;8.938;2023-07-22T11:08:16;23.90;90.80
7588;DHT22;3835;48.850;8.938;2023-07-22T11:10:53;24.10;90.90
7588;DHT22;3835;48.850;8.938;2023-07-22T11:13:27;24.30;91.00
7588;DHT22;3835;48.850;8.938;2023-07-22T11:15:57;24.30;90.60
7588;DHT22;3835;48.850;8.938;2023-07-22T11:18:36;24.30;89.70
7588;DHT22;3835;48.850;8.938;2023-07-22T11:21:07;24.10;89.30
7588;DHT22;3835;48.850;8.938;2023-07-22T11:23:34;23.90;90.10
7588;DHT22;3835;48.850;8.938;2023-07-22T11:26:02;24.30;90.60
7588;DHT22;3835;48.850;8.938;2023-07-22T11:28:29;24.80;90.60
7588;DHT22;3835;48.850;8.938;2023-07-22T11:30:56;25.10;88.60
7588;DHT22;3835;48.850;8.938;2023-07-22T11:33:24;25.40;88.20
7588;DHT22;3835;48.850;8.938;2023-07-22T11:35:51;25.20;86.90
7588;DHT22;3835;48.850;8.938;2023-07-22T11:38:20;25.00;88.20
7588;DHT22;3835;48.850;8.938;2023-07-22T11:40:47;25.20;86.50
7588;DHT22;3835;48.850;8.938;2023-07-22T11:43:14;25.40;88.60
7588;DHT22;3835;48.850;8.938;2023-07-22T11:45:41;25.20;84.40
7588;DHT22;3835;48.850;8.938;2023-07-22T11:48:12;24.60;86.80
7588;DHT22;3835;48.850;8.938;2023-07-22T11:50:39;24.40;86.00
7588;DHT22;3835;48.850;8.938;2023-07-22T11:53:06;24.40;89.20
7588;DHT22;3835;48.850;8.938;2023-07-22T11:55:36;25.10;88.10
7588;DHT22;3835;48.850;8.938;2023-07-22T11:58:04;25.70;87.60
7588;DHT22;3835;48.850;8.938;2023-07-22T12:00:33;25.90;84.70
7588;DHT22;3835;48.850;8.938;2023-07-22T12:03:05;26.20;83.10
7588;DHT22;3835;48.850;8.938;2023-07-22T12:05:35;26.50;84.30
7588;DHT22;3835;48.850;8.938;2023-07-22T12:08:03;26.40;78.40
7588;DHT22;3835;48.850;8.938;2023-07-22T12:10:32;25.90;79.20
7588;DHT22;3835;48.850;8.938;2023-07-22T12:13:01;25.30;80.00
7588;DHT22;3835;48.850;8.938;2023-07-22T12:15:28;25.40;80.50
7588;DHT22;3835;48.850;8.938;2023-07-22T12:17:57;25.80;82.10
7588;DHT22;3835;48.850;8.938;2023-07-22T12:20:25;26.40;80.00
7588;DHT22;3835;48.850;8.938;2023-07-22T12:22:52;26.40;80.40
7588;DHT22;3835;48.850;8.938;2023-07-22T12:25:19;26.60;79.60
7588;DHT22;3835;48.850;8.938;2023-07-22T12:27:46;26.30;78.00
7588;DHT22;3835;48.850;8.938;2023-07-22T12:30:14;26.40;80.20
7588;DHT22;3835;48.850;8.938;2023-07-22T12:32:41;26.50;81.40
7588;DHT22;3835;48.850;8.938;2023-07-22T12:35:08;25.20;85.10
7588;DHT22;3835;48.850;8.938;2023-07-22T12:37:36;24.40;83.40
7588;DHT22;3835;48.850;8.938;2023-07-22T12:40:03;24.40;84.80
7588;DHT22;3835;48.850;8.938;2023-07-22T12:42:33;24.60;87.60
7588;DHT22;3835;48.850;8.938;2023-07-22T12:45:00;25.10;86.90
7588;DHT22;3835;48.850;8.938;2023-07-22T12:47:28;25.40;83.20
7588;DHT22;3835;48.850;8.938;2023-07-22T12:49:55;24.70;82.20
7588;DHT22;3835;48.850;8.938;2023-07-22T12:52:22;24.10;84.50
7588;DHT22;3835;48.850;8.938;2023-07-22T12:54:48;24.00;86.40
7588;DHT22;3835;48.850;8.938;2023-07-22T12:57:15;24.10;86.20
7588;DHT22;3835;48.850;8.938;2023-07-22T12:59:42;23.90;85.30
7588;DHT22;3835;48.850;8.938;2023-07-22T13:02:08;24.30;85.10
7588;DHT22;3835;48.850;8.938;2023-07-22T13:04:37;24.60;83.80
7588;DHT22;3835;48.850;8.938;2023-07-22T13:07:04;24.60;83.60
7588;DHT22;3835;48.850;8.938;2023-07-22T13:09:30;24.60;83.70
7588;DHT22;3835;48.850;8.938;2023-07-22T13:11:57;24.80;83.00
7588;DHT22;3835;48.850;8.938;2023-07-22T13:14:24;24.90;86.10
7588;DHT22;3835;48.850;8.938;2023-07-22T13:16:50;25.30;85.10
7588;DHT22;3835;48.850;8.938;2023-07-22T13:19:17;25.60;82.80
7588;DHT22;3835;48.850;8.938;2023-07-22T13:21:45;25.90;82.90
7588;DHT22;3835;48.850;8.938;2023-07-22T13:24:12;26.20;80.70
7588;DHT22;3835;48.850;8.938;2023-07-22T13:26:39;26.10;81.40
7588;DHT22;3835;48.850;8.938;2023-07-22T13:29:06;25.60;82.10
7588;DHT22;3835;48.850;8.938;2023-07-22T13:31:34;25.50;82.80
7588;DHT22;3835;48.850;8.938;2023-07-22T13:34:01;25.60;81.80
7588;DHT22;3835;48.850;8.938;2023-07-22T13:36:27;25.50;81.50
7588;DHT22;3835;48.850;8.938;2023-07-22T13:38:55;25.20;82.90
7588;DHT22;3835;48.850;8.938;2023-07-22T13:41:22;24.90;83.40
7588;DHT22;3835;48.850;8.938;2023-07-22T13:43:49;24.50;83.40
7588;DHT22;3835;48.850;8.938;2023-07-22T13:46:16;24.60;82.80
7588;DHT22;3835;48.850;8.938;2023-07-22T13:48:42;24.60;84.20
7588;DHT22;3835;48.850;8.938;2023-07-22T13:51:09;25.00;83.40
7588;DHT22;3835;48.850;8.938;2023-07-22T13:53:36;25.10;82.20
7588;DHT22;3835;48.850;8.938;2023-07-22T13:56:04;25.10;80.30
7588;DHT22;3835;48.850;8.938;2023-07-22T13:58:31;25.20;81.30
7588;DHT22;3835;48.850;8.938;2023-07-22T14:00:58;25.30;79.10
7588;DHT22;3835;48.850;8.938;2023-07-22T14:03:25;25.10;78.60
7588;DHT22;3835;48.850;8.938;2023-07-22T14:05:51;25.30;79.70
7588;DHT22;3835;48.850;8.938;2023-07-22T14:08:18;25.50;80.90
7588;DHT22;3835;48.850;8.938;2023-07-22T14:10:45;25.80;80.50
7588;DHT22;3835;48.850;8.938;2023-07-22T14:13:13;25.80;76.00
7588;DHT22;3835;48.850;8.938;2023-07-22T14:15:41;25.90;78.90
7588;DHT22;3835;48.850;8.938;2023-07-22T14:18:08;26.20;76.90
7588;DHT22;3835;48.850;8.938;2023-07-22T14:20:34;26.60;77.80
7588;DHT22;3835;48.850;8.938;2023-07-22T14:23:01;26.80;77.00
7588;DHT22;3835;48.850;8.938;2023-07-22T14:25:29;26.70;75.90
7588;DHT22;3835;48.850;8.938;2023-07-22T14:27:56;26.40;77.20
7588;DHT22;3835;48.850;8.938;2023-07-22T14:30:24;26.60;78.60
7588;DHT22;3835;48.850;8.938;2023-07-22T14:32:50;26.70;77.80
7588;DHT22;3835;48.850;8.938;2023-07-22T14:35:17;26.40;74.90
7588;DHT22;3835;48.850;8.938;2023-07-22T14:37:44;26.40;75.70
7588;DHT22;3835;48.850;8.938;2023-07-22T14:40:12;26.50;77.20
7588;DHT22;3835;48.850;8.938;2023-07-22T14:42:39;26.30;75.90
7588;DHT22;3835;48.850;8.938;2023-07-22T14:45:06;26.30;75.80
7588;DHT22;3835;48.850;8.938;2023-07-22T14:47:35;26.00;77.10
7588;DHT22;3835;48.850;8.938;2023-07-22T14:50:02;25.70;75.70
7588;DHT22;3835;48.850;8.938;2023-07-22T14:52:28;25.50;76.50
7588;DHT22;3835;48.850;8.938;2023-07-22T14:54:55;25.70;78.40
7588;DHT22;3835;48.850;8.938;2023-07-22T14:57:22;25.80;77.90
7588;DHT22;3835;48.850;8.938;2023-07-22T14:59:52;26.00;80.20
7588;DHT22;3835;48.850;8.938;2023-07-22T15:02:18;26.00;78.40
7588;DHT22;3835;48.850;8.938;2023-07-22T15:04:47;25.80;79.50
7588;DHT22;3835;48.850;8.938;2023-07-22T15:07:13;25.30;76.40
7588;DHT22;3835;48.850;8.938;2023-07-22T15:09:40;25.00;78.30
7588;DHT22;3835;48.850;8.938;2023-07-22T15:12:08;25.10;78.40
7588;DHT22;3835;48.850;8.938;2023-07-22T15:14:36;24.90;79.40
7588;DHT22;3835;48.850;8.938;2023-07-22T15:17:03;25.10;78.50
7588;DHT22;3835;48.850;8.938;2023-07-22T15:19:30;25.20;78.10
7588;DHT22;3835;48.850;8.938;2023-07-22T15:21:58;25.10;78.00
7588;DHT22;3835;48.850;8.938;2023-07-22T15:24:25;25.10;79.80
7588;DHT22;3835;48.850;8.938;2023-07-22T15:26:52;25.00;77.80
7588;DHT22;3835;48.850;8.938;2023-07-22T15:29:19;25.10;78.40
7588;DHT22;3835;48.850;8.938;2023-07-22T15:31:45;25.00;79.00
7588;DHT22;3835;48.850;8.938;2023-07-22T15:34:12;25.30;78.50
7588;DHT22;3835;48.850;8.938;2023-07-22T15:36:39;25.60;79.80
7588;DHT22;3835;48.850;8.938;2023-07-22T15:39:07;25.80;79.90
7588;DHT22;3835;48.850;8.938;2023-07-22T15:41:34;25.90;77.90
7588;DHT22;3835;48.850;8.938;2023-07-22T15:44:01;25.30;77.30
7588;DHT22;3835;48.850;8.938;2023-07-22T15:46:28;25.10;78.20
7588;DHT22;3835;48.850;8.938;2023-07-22T15:48:55;25.00;77.80
7588;DHT22;3835;48.850;8.938;2023-07-22T15:51:21;25.20;78.20
7588;DHT22;3835;48.850;8.938;2023-07-22T15:53:48;25.20;77.40
7588;DHT22;3835;48.850;8.938;2023-07-22T15:56:16;25.20;78.90
7588;DHT22;3835;48.850;8.938;2023-07-22T15:58:43;25.40;78.20
7588;DHT22;3835;48.850;8.938;2023-07-22T16:01:09;25.40;78.20
7588;DHT22;3835;48.850;8.938;2023-07-22T16:03:36;25.50;77.90